Homerville, Ohio
Current Conditions -  °F | °C
As of 5:56 PM on Tuesday 21 Oct 2014 (Local Time) from KBJJ Reporting Station
Light Rain Light Rain  
Wind Chill: 42°   Ceiling: 1200
Heat Index: 47°   Visibility: 5mi
Dew Point: 43°   Wind: 12mph
Humidity: 86%   Direction: 330°NNW
Pressure: 30.04"   Gusts: NA
Location:  41.03°N, 82.13°W
Report Text: KBJJ 212156Z AUTO 33010KT 5SM -RA BR BKN012 OVC020 08/06 A3004 RMK AO2 SLP174 P0000 T00830061 TSNO
Loading
Personal Weather Stations






























Interactive Weather Map
Tropical Storm Tracking
New forecast layout! Learn more

10-Day Weather Forecast

Advertisements
Track Severe Weather on mobile